Flight Track Log - Related Links

Times and Time Zones

All times are in EDT time to prevent confusion due to time zone crossing. See the BJS542 flight status page for this flight to view local times or setup timezone preferences in your user account.

Time Position Orientation Groundspeed Altitude Reporting Facility
EDT Latitude Longitude Course Direction KTS MPH feet Rate Location/Type
Thu 02:30:56 PM 39.2861 -106.9383 322° Northwest 251 289 11,700  Level Denver Center
Thu 02:31:58 PM 39.3042 -107.0231 285° West 241 277 15,100 2,903 Climbing Denver Center
Thu 02:33:00 PM 39.3475 -107.0967 307° West 252 290 17,700 2,081 Climbing Denver Center
Thu 02:34:02 PM 39.4089 -107.1803 314° West 314 361 19,400 1,452 Climbing Denver Center
Thu 02:35:04 PM 39.4981 -107.2817 319° Northwest 370 426 20,700 1,548 Climbing Denver Center
Thu 02:36:00 PM 39.6647 -107.4647 322° Northwest  Level FlightAware Approximate
Thu 02:36:06 PM 39.5839 -107.3758 320° Northwest 410 472 22,600  Level Denver Center
Thu 02:37:08 PM 39.6844 -107.4892 319° Northwest 425 489 25,000 2,208 Climbing Denver Center
Thu 02:38:11 PM 39.7708 -107.5844 320° Northwest 426 490 27,200 2,064 Climbing Denver Center
Thu 02:39:13 PM 39.8711 -107.7022 318° Northwest 431 496 29,300 1,694 Climbing Denver Center
Thu 02:40:15 PM 39.9447 -107.8169 310° West 436 502 30,700 1,500 Climbing Denver Center
Thu 02:41:17 PM 40.0350 -107.9542 311° West 444 511 32,400 1,500 Climbing Denver Center
Thu 02:42:19 PM 40.1161 -108.0761 311° West 460 529 33,800 1,452 Climbing Denver Center
Thu 02:43:21 PM 40.2072 -108.2175 310° West 458 527 35,400 1,065 Climbing Denver Center
Thu 02:44:23 PM 40.2867 -108.3406 310° West 462 532 36,000 340 Climbing Denver Center
Thu 02:45:07 PM 40.3428 -108.4275 310° West 461 531 36,000  Level Salt Lake Center
Thu 02:46:09 PM 40.4342 -108.5700 310° West 457 526 36,000  Level Salt Lake Center
Thu 02:47:10 PM 40.5122 -108.6936 310° West 458 527 36,000  Level Salt Lake Center
Thu 02:48:12 PM 40.6031 -108.8378 310° West 458 527 36,000  Level Salt Lake Center
Thu 02:49:14 PM 40.6819 -108.9617 310° West 459 528 36,000  Level Salt Lake Center
Thu 02:50:16 PM 40.7719 -109.1075 309° West 459 528 36,000  Level Salt Lake Center
Thu 02:51:18 PM 40.8500 -109.2339 309° West 461 531 36,000  Level Salt Lake Center
Thu 02:52:21 PM 40.9292 -109.3606 310° West 463 533 36,000  Level Salt Lake Center
Thu 02:53:23 PM 41.0219 -109.5111 309° West 469 540 36,000  Level Salt Lake Center
Thu 02:54:25 PM 41.1025 -109.6406 310° West 471 542 36,000  Level Salt Lake Center
Thu 02:55:27 PM 41.1944 -109.7908 309° West 468 539 36,000  Level Salt Lake Center
Thu 02:56:29 PM 41.2722 -109.9175 309° West 462 532 36,000  Level Salt Lake Center
Thu 02:57:31 PM 41.3628 -110.0656 309° West 461 531 36,000  Level Salt Lake Center
Thu 02:58:33 PM 41.4397 -110.1928 309° West 460 529 36,000  Level Salt Lake Center
Thu 02:59:35 PM 41.5292 -110.3425 309° West 461 531 36,000  Level Salt Lake Center
Thu 03:00:37 PM 41.6067 -110.4692 309° West 460 529 36,000  Level Salt Lake Center
Thu 03:01:39 PM 41.6839 -110.5978 309° West 463 533 36,000  Level Salt Lake Center
Thu 03:02:41 PM 41.7742 -110.7483 309° West 464 534 36,000 -532 Level Salt Lake Center
Thu 03:03:43 PM 41.8506 -110.8772 309° West 462 532 34,900 -1,306 Descending Salt Lake Center
Thu 03:04:45 PM 41.9419 -111.0325 308° West 472 543 33,300 -1,887 Descending Salt Lake Center
Thu 03:05:47 PM 42.0200 -111.1631 309° West 471 542 31,000 -2,710 Descending Salt Lake Center
Thu 03:06:49 PM 42.1133 -111.3242 308° West 487 560 27,700 -2,661 Descending Salt Lake Center
Thu 03:07:51 PM 42.1925 -111.4578 309° West 480 552 25,500 -2,177 Descending Salt Lake Center
Thu 03:08:53 PM 42.2750 -111.6025 308° West 444 511 23,200 -2,032 Descending Salt Lake Center
Thu 03:09:55 PM 42.3425 -111.7200 308° West 422 486 21,300 -2,226 Descending Salt Lake Center
Thu 03:10:57 PM 42.4192 -111.8536 308° West 405 466 18,600 -2,323 Descending Salt Lake Center
Thu 03:11:59 PM 42.4817 -111.9633 308° West 400 460 16,500 -2,323 Descending Salt Lake Center
Thu 03:13:01 PM 42.5547 -112.0928 307° West 393 452 13,800 -1,790 Descending Salt Lake Center
Thu 03:14:03 PM 42.6144 -112.1975 308° West 383 441 12,800 -871 Descending Salt Lake Center
Thu 03:15:05 PM 42.6836 -112.3172 308° West 372 428 12,000 -387 Descending Salt Lake Center
Thu 03:16:07 PM 42.7397 -112.4183 307° West 364 419 12,000 -384 Level Salt Lake Center
Thu 03:17:10 PM 42.8011 -112.5283 307° West 349 402 11,200 -1,152 Descending Salt Lake Center
Thu 03:18:12 PM 42.8747 -112.5153 North 318 366 9,600 -2,032 Descending Salt Lake Center
Thu 03:19:14 PM 42.9386 -112.4478 38° Northeast 276 318 7,000 -1,790 Descending Salt Lake Center
Thu 03:20:16 PM 42.9656 -112.5131 299° West 231 266 5,900 -823 Descending Salt Lake Center
Thu 03:21:18 PM 42.9358 -112.5478 221° Southwest 190 219 5,300 -581 Descending Salt Lake Center

Login

Don't have an account? Register now (free) for customized features, flight alerts, and more!